Time;durP1;ratioP1;P1;durP2;ratioP2;P2;SDS_P1;SDS_P2;PMS_P1;PMS_P2;Temp;Humidity;BMP_temperature;BMP_pressure;BME280_temperature;BME280_humidity;BME280_pressure;Samples;Min_cycle;Max_cycle;Signal;HPM_P1;HPM_P2
2024/01/12 00:02:08;;;;;;;30.42;16.77;;;0.10;99.90;;;;;;5082671;28;20406;-70
2024/01/12 00:04:34;;;;;;;33.10;17.80;;;0.10;99.90;;;;;;5081821;28;20035;-72
2024/01/12 00:06:59;;;;;;;34.90;17.02;;;0.10;99.90;;;;;;5084248;28;20025;-71
2024/01/12 00:09:25;;;;;;;31.08;16.20;;;0.10;99.90;;;;;;5093396;28;20064;-72
2024/01/12 00:11:51;;;;;;;28.60;16.23;;;0.10;99.90;;;;;;5088274;28;20472;-72
2024/01/12 00:14:17;;;;;;;32.08;17.98;;;0.00;99.90;;;;;;5083364;28;20028;-71
2024/01/12 00:16:47;;;;;;;29.88;16.40;;;0.10;99.90;;;;;;5077418;28;20487;-70
2024/01/12 00:19:13;;;;;;;34.63;15.63;;;0.10;99.90;;;;;;5080631;28;20024;-70
2024/01/12 00:21:42;;;;;;;41.20;18.13;;;0.10;99.90;;;;;;5079838;28;20035;-73
2024/01/12 00:24:07;;;;;;;43.00;15.30;;;0.00;99.90;;;;;;5075741;28;20032;-72
2024/01/12 00:26:33;;;;;;;41.15;17.23;;;0.00;99.90;;;;;;5078413;28;20097;-71
2024/01/12 00:28:58;;;;;;;30.15;15.38;;;0.00;99.90;;;;;;5077426;28;20476;-71
2024/01/12 00:31:24;;;;;;;27.15;15.38;;;0.00;99.90;;;;;;5079360;28;20059;-72
2024/01/12 00:33:49;;;;;;;45.10;16.90;;;0.00;99.90;;;;;;5082584;28;20024;-70
2024/01/12 00:36:15;;;;;;;28.23;15.80;;;-0.10;99.90;;;;;;5082775;28;20048;-70
2024/01/12 00:38:41;;;;;;;31.35;17.02;;;-0.10;99.90;;;;;;5077785;28;20460;-70
2024/01/12 00:41:07;;;;;;;26.98;15.60;;;-0.10;99.90;;;;;;5080486;28;20056;-71
2024/01/12 00:43:34;;;;;;;40.05;15.90;;;-0.10;99.90;;;;;;5079447;28;20063;-71
2024/01/12 00:46:00;;;;;;;32.08;16.30;;;-0.10;99.90;;;;;;5078840;28;20084;-71
2024/01/12 00:48:26;;;;;;;25.75;16.15;;;-0.20;99.90;;;;;;5073194;28;20052;-71
2024/01/12 00:50:52;;;;;;;25.67;15.27;;;-0.20;99.90;;;;;;5073611;28;20579;-71
2024/01/12 00:53:17;;;;;;;27.00;16.40;;;-0.20;99.90;;;;;;5073899;28;20549;-71
2024/01/12 00:55:43;;;;;;;38.20;16.40;;;-0.20;99.90;;;;;;5072690;28;20063;-71
2024/01/12 00:58:09;;;;;;;59.15;15.95;;;-0.20;99.90;;;;;;5072266;28;20067;-72
2024/01/12 01:00:34;;;;;;;24.40;14.73;;;-0.20;99.90;;;;;;5070009;28;20470;-72
2024/01/12 01:03:03;;;;;;;24.67;14.32;;;-0.30;99.90;;;;;;5073411;28;20096;-71
2024/01/12 01:05:29;;;;;;;23.92;14.60;;;-0.30;99.90;;;;;;5072505;28;20025;-71
2024/01/12 01:07:54;;;;;;;74.70;14.40;;;-0.40;99.90;;;;;;5073696;28;20021;-70
2024/01/12 01:10:20;;;;;;;27.50;15.48;;;-0.60;99.90;;;;;;5072878;28;20364;-70
2024/01/12 01:12:45;;;;;;;25.58;16.00;;;-0.60;99.90;;;;;;5072614;28;20055;-72
2024/01/12 01:15:13;;;;;;;26.25;15.38;;;-0.60;99.90;;;;;;5071896;28;20414;-71
2024/01/12 01:17:39;;;;;;;28.08;15.57;;;-0.60;99.90;;;;;;5072948;28;20100;-72
2024/01/12 01:20:05;;;;;;;25.17;15.27;;;-0.50;99.90;;;;;;5074247;28;20131;-74
2024/01/12 01:22:33;;;;;;;27.75;15.93;;;-0.50;99.90;;;;;;5072661;28;20040;-73
2024/01/12 01:24:59;;;;;;;25.95;15.20;;;-0.50;99.90;;;;;;5071167;28;20468;-72
2024/01/12 01:27:25;;;;;;;33.88;14.93;;;-0.50;99.90;;;;;;5073039;28;20028;-71
2024/01/12 01:29:51;;;;;;;24.92;15.43;;;-0.50;99.90;;;;;;5073273;28;20377;-71
2024/01/12 01:32:17;;;;;;;24.13;14.98;;;-0.50;99.90;;;;;;5073072;28;20027;-71
2024/01/12 01:34:42;;;;;;;24.75;14.75;;;-0.50;99.90;;;;;;5071114;28;20104;-72
2024/01/12 01:37:08;;;;;;;23.08;14.68;;;-0.50;99.90;;;;;;5071727;28;20021;-71
2024/01/12 01:39:33;;;;;;;125.03;15.30;;;-0.50;99.90;;;;;;5072019;28;20103;-73
2024/01/12 01:42:01;;;;;;;27.67;14.80;;;-0.50;99.90;;;;;;5072188;28;20480;-73
2024/01/12 01:44:27;;;;;;;30.35;15.02;;;-0.60;99.90;;;;;;5071378;28;20567;-71
2024/01/12 01:46:54;;;;;;;32.08;14.10;;;-0.50;99.90;;;;;;5071915;28;20093;-71
2024/01/12 01:49:21;;;;;;;24.13;14.27;;;-0.60;99.90;;;;;;5071915;28;20078;-71
2024/01/12 01:51:47;;;;;;;24.55;14.70;;;-0.50;99.90;;;;;;5071600;28;20505;-71
2024/01/12 01:54:14;;;;;;;24.50;13.98;;;-0.50;99.90;;;;;;5071421;28;20037;-70
2024/01/12 01:56:40;;;;;;;21.92;14.18;;;-0.50;99.90;;;;;;5071654;28;20070;-71
2024/01/12 01:59:07;;;;;;;25.52;14.10;;;-0.50;99.90;;;;;;5071769;28;20025;-71
2024/01/12 02:01:33;;;;;;;21.90;14.40;;;-0.50;99.90;;;;;;5072489;28;20024;-72
2024/01/12 02:04:01;;;;;;;20.40;13.25;;;-0.50;99.90;;;;;;5070608;28;20077;-71
2024/01/12 02:06:26;;;;;;;21.65;13.52;;;-0.50;99.90;;;;;;5071587;28;20059;-71
2024/01/12 02:08:52;;;;;;;29.95;14.27;;;-0.50;99.90;;;;;;5071747;28;20499;-71
2024/01/12 02:11:18;;;;;;;21.38;13.43;;;-0.50;99.90;;;;;;5072157;28;20029;-72
2024/01/12 02:13:44;;;;;;;22.05;14.18;;;-0.50;99.90;;;;;;5071720;28;20024;-72
2024/01/12 02:16:10;;;;;;;26.02;14.40;;;-0.50;99.90;;;;;;5071178;28;20533;-73
2024/01/12 02:18:36;;;;;;;23.23;13.50;;;-0.60;99.90;;;;;;5071672;28;20017;-73
2024/01/12 02:21:01;;;;;;;22.50;13.85;;;-0.60;99.90;;;;;;5071415;28;20607;-72
2024/01/12 02:23:27;;;;;;;23.67;14.10;;;-0.60;99.90;;;;;;5069850;28;20066;-73
2024/01/12 02:25:52;;;;;;;26.00;14.70;;;-0.50;99.90;;;;;;5070740;28;20107;-72
2024/01/12 02:28:18;;;;;;;28.77;14.77;;;-0.50;99.90;;;;;;5071336;28;20085;-71
2024/01/12 02:30:44;;;;;;;28.10;15.20;;;-0.50;99.90;;;;;;5070757;28;20422;-70
2024/01/12 02:33:10;;;;;;;23.67;14.57;;;-0.50;99.90;;;;;;5071243;28;20430;-71
2024/01/12 02:35:36;;;;;;;34.83;15.23;;;-0.50;99.90;;;;;;5070933;28;20325;-70
2024/01/12 02:38:01;;;;;;;26.00;15.27;;;-0.50;99.90;;;;;;5071005;28;20678;-71
2024/01/12 02:40:27;;;;;;;28.38;15.82;;;-0.50;99.90;;;;;;5070856;28;20059;-71
2024/01/12 02:42:53;;;;;;;29.02;15.38;;;-0.50;99.90;;;;;;5070301;28;20112;-70
2024/01/12 02:45:19;;;;;;;29.02;16.67;;;-0.60;99.90;;;;;;5070109;28;20502;-71
2024/01/12 02:47:44;;;;;;;28.35;16.98;;;-0.60;99.90;;;;;;5070842;28;20557;-72
2024/01/12 02:50:10;;;;;;;29.67;16.77;;;-0.60;99.90;;;;;;5070775;28;20020;-72
2024/01/12 02:52:36;;;;;;;66.88;17.63;;;-0.60;99.90;;;;;;5072300;28;20387;-73
2024/01/12 02:55:08;;;;;;;30.67;16.27;;;-0.60;99.90;;;;;;5080589;28;20115;-74
2024/01/12 02:57:33;;;;;;;30.65;14.82;;;-0.60;99.90;;;;;;5074951;28;20032;-72
2024/01/12 02:59:59;;;;;;;29.98;15.35;;;-0.70;99.90;;;;;;5080822;28;20054;-72
2024/01/12 03:02:25;;;;;;;33.20;16.08;;;;;;;;;;5091900;28;20040;-73
2024/01/12 03:04:51;;;;;;;23.98;14.27;;;-0.80;99.90;;;;;;5090537;28;20093;-72
2024/01/12 03:07:16;;;;;;;23.65;14.98;;;-0.70;99.90;;;;;;5091503;28;20020;-73
2024/01/12 03:09:42;;;;;;;27.30;16.83;;;-0.70;99.90;;;;;;5091277;28;20442;-73
2024/01/12 03:12:07;;;;;;;26.27;16.20;;;-0.80;99.90;;;;;;5091918;28;20382;-73
2024/01/12 03:14:33;;;;;;;27.25;16.33;;;-0.80;99.90;;;;;;5090761;28;20063;-73
2024/01/12 03:16:59;;;;;;;28.65;15.93;;;-0.80;99.90;;;;;;5091774;28;20118;-73
2024/01/12 03:19:24;;;;;;;30.02;17.00;;;-0.70;99.90;;;;;;5091715;28;20028;-72
2024/01/12 03:21:50;;;;;;;26.88;16.95;;;-0.70;99.90;;;;;;5091847;28;20521;-73
2024/01/12 03:24:15;;;;;;;31.13;16.75;;;-0.80;99.90;;;;;;5090703;28;20040;-72
2024/01/12 03:26:41;;;;;;;37.60;16.15;;;-0.70;99.90;;;;;;5091772;28;20038;-74
2024/01/12 03:29:06;;;;;;;31.60;17.50;;;-0.70;99.90;;;;;;5091611;28;20029;-74
2024/01/12 03:31:33;;;;;;;36.03;18.27;;;-0.80;99.90;;;;;;5092035;28;20103;-73
2024/01/12 03:33:58;;;;;;;29.85;18.30;;;-0.80;99.90;;;;;;5091527;28;20085;-73
2024/01/12 03:36:26;;;;;;;30.17;17.60;;;-0.80;99.90;;;;;;5091525;28;20095;-73
2024/01/12 03:38:53;;;;;;;37.95;19.15;;;-0.80;99.90;;;;;;5091805;28;20032;-76
2024/01/12 03:41:18;;;;;;;35.03;18.83;;;-0.80;99.90;;;;;;5074857;28;20028;-71
2024/01/12 03:43:44;;;;;;;33.97;18.77;;;-0.80;99.90;;;;;;5070444;28;20029;-72
2024/01/12 03:46:10;;;;;;;35.60;19.80;;;-0.80;99.90;;;;;;5071085;28;20057;-73
2024/01/12 03:48:35;;;;;;;34.67;20.33;;;-0.80;99.90;;;;;;5070743;28;20039;-73
2024/01/12 03:51:01;;;;;;;39.22;20.83;;;-0.80;99.90;;;;;;5063721;28;20057;-72
2024/01/12 03:53:27;;;;;;;55.13;21.42;;;-0.70;99.90;;;;;;5073517;28;20021;-72
2024/01/12 03:55:52;;;;;;;36.03;20.13;;;-0.70;99.90;;;;;;5072320;28;20054;-73
2024/01/12 03:58:18;;;;;;;109.68;21.85;;;-0.80;99.90;;;;;;5070110;28;20040;-73
2024/01/12 04:00:44;;;;;;;54.25;22.08;;;-0.90;99.90;;;;;;5071849;28;20074;-73
2024/01/12 04:03:09;;;;;;;68.43;22.70;;;-0.90;99.90;;;;;;5072574;28;20029;-73
2024/01/12 04:05:35;;;;;;;42.75;23.95;;;-0.90;99.90;;;;;;5071358;28;20490;-72
2024/01/12 04:08:01;;;;;;;45.03;22.70;;;-0.90;99.90;;;;;;5072889;28;20033;-72
2024/01/12 04:10:26;;;;;;;43.80;22.75;;;-0.80;99.90;;;;;;5082503;28;20020;-72
2024/01/12 04:12:52;;;;;;;52.03;22.38;;;-0.90;99.90;;;;;;5076253;28;20060;-72
2024/01/12 04:15:17;;;;;;;45.63;23.75;;;-0.90;99.90;;;;;;5075456;28;20017;-72
2024/01/12 04:17:43;;;;;;;80.13;23.90;;;-0.90;99.90;;;;;;5076718;28;20043;-73
2024/01/12 04:20:09;;;;;;;41.70;23.48;;;-0.90;99.90;;;;;;5076470;28;20036;-76
2024/01/12 04:22:35;;;;;;;37.47;22.90;;;-0.90;99.90;;;;;;5075265;28;20491;-73
2024/01/12 04:25:01;;;;;;;41.55;23.15;;;-0.90;99.90;;;;;;5074875;28;20045;-71
2024/01/12 04:27:28;;;;;;;38.83;21.65;;;-0.90;99.90;;;;;;5074980;28;20078;-71
2024/01/12 04:29:54;;;;;;;38.42;21.98;;;-0.90;99.90;;;;;;5074973;28;20048;-72
2024/01/12 04:32:19;;;;;;;38.28;22.92;;;-0.90;99.90;;;;;;5074730;28;20056;-73
2024/01/12 04:34:45;;;;;;;35.83;20.88;;;-0.90;99.90;;;;;;5074407;28;20082;-73
2024/01/12 04:37:10;;;;;;;34.25;20.70;;;-0.90;99.90;;;;;;5074770;28;20399;-72
2024/01/12 04:39:36;;;;;;;45.60;20.77;;;-0.90;99.90;;;;;;5075047;28;20040;-76
2024/01/12 04:42:01;;;;;;;89.75;20.30;;;-0.90;99.90;;;;;;5075259;28;20104;-71
2024/01/12 04:44:27;;;;;;;35.72;20.95;;;-0.90;99.90;;;;;;5073816;28;20137;-72
2024/01/12 04:46:53;;;;;;;44.70;19.35;;;-0.90;99.90;;;;;;5074046;28;20029;-71
2024/01/12 04:49:18;;;;;;;55.20;18.70;;;-0.90;99.90;;;;;;5074093;28;20067;-70
2024/01/12 04:51:44;;;;;;;43.63;18.38;;;-1.00;99.90;;;;;;5073733;28;20020;-72
2024/01/12 04:54:10;;;;;;;41.35;18.77;;;-1.00;99.90;;;;;;5073541;28;20039;-70
2024/01/12 04:56:35;;;;;;;35.05;19.60;;;-1.00;99.90;;;;;;5073564;28;20025;-71
2024/01/12 04:59:01;;;;;;;33.33;17.40;;;-1.00;99.90;;;;;;5073664;28;20060;-72
2024/01/12 05:01:27;;;;;;;37.55;19.83;;;-1.00;99.90;;;;;;5073585;28;20364;-73
2024/01/12 05:03:52;;;;;;;42.08;20.33;;;-1.10;99.90;;;;;;5073319;28;20396;-71
2024/01/12 05:06:18;;;;;;;34.50;18.73;;;-1.10;99.90;;;;;;5073686;28;20032;-73
2024/01/12 05:08:43;;;;;;;63.50;18.58;;;-1.10;99.90;;;;;;5073600;28;20104;-72
2024/01/12 05:11:09;;;;;;;86.53;18.45;;;-1.20;99.90;;;;;;5073497;28;20107;-72
2024/01/12 05:13:34;;;;;;;103.30;20.17;;;-1.20;99.90;;;;;;5075934;28;20025;-72
2024/01/12 05:16:00;;;;;;;33.95;18.73;;;-1.20;99.90;;;;;;5084287;28;20108;-71
2024/01/12 05:18:25;;;;;;;36.88;18.85;;;-1.20;99.90;;;;;;5080048;28;20029;-73
2024/01/12 05:20:51;;;;;;;78.05;19.65;;;-1.30;99.90;;;;;;5072877;28;20063;-75
2024/01/12 05:23:17;;;;;;;37.30;19.95;;;-1.30;99.90;;;;;;5073389;28;20381;-73
2024/01/12 05:25:43;;;;;;;37.60;19.92;;;-1.30;99.90;;;;;;5073315;28;20037;-73
2024/01/12 05:28:08;;;;;;;34.85;20.08;;;-1.20;99.90;;;;;;5073767;28;20080;-73
2024/01/12 05:30:34;;;;;;;36.55;22.27;;;-1.10;99.90;;;;;;5073287;28;20028;-73
2024/01/12 05:33:00;;;;;;;43.33;23.42;;;-1.10;99.90;;;;;;5073331;28;20029;-72
2024/01/12 05:35:25;;;;;;;40.85;23.05;;;-1.00;99.90;;;;;;5073072;28;20020;-71
2024/01/12 05:37:51;;;;;;;41.03;23.75;;;-0.90;99.90;;;;;;5074165;28;20040;-71
2024/01/12 05:40:17;;;;;;;68.05;24.48;;;-1.10;99.90;;;;;;5072235;28;20029;-73
2024/01/12 05:42:43;;;;;;;37.72;21.98;;;-1.10;99.90;;;;;;5070588;28;20126;-74
2024/01/12 05:45:09;;;;;;;42.45;22.77;;;-1.20;99.90;;;;;;5071818;28;20444;-75
2024/01/12 05:47:36;;;;;;;39.13;22.23;;;-1.10;99.90;;;;;;5073474;28;20085;-74
2024/01/12 05:50:02;;;;;;;58.60;21.25;;;-1.00;99.90;;;;;;5076327;28;20036;-74
2024/01/12 05:52:28;;;;;;;62.97;33.40;;;-1.00;99.90;;;;;;5073151;28;20404;-73
2024/01/12 05:54:55;;;;;;;42.72;25.15;;;-1.00;99.90;;;;;;5071736;28;20020;-73
2024/01/12 05:57:20;;;;;;;60.65;21.95;;;-1.00;99.90;;;;;;5071393;28;20092;-74
2024/01/12 05:59:46;;;;;;;48.95;22.15;;;-0.90;99.90;;;;;;5074008;28;20047;-72
2024/01/12 06:02:14;;;;;;;45.28;24.92;;;-1.00;99.90;;;;;;5073399;28;20040;-73
2024/01/12 06:04:40;;;;;;;43.60;24.15;;;-0.90;99.90;;;;;;5072864;28;20104;-73
2024/01/12 06:07:06;;;;;;;34.60;20.45;;;-0.90;99.90;;;;;;5072843;28;20048;-71
2024/01/12 06:09:31;;;;;;;43.72;22.08;;;-0.80;99.90;;;;;;5072046;28;20028;-72
2024/01/12 06:11:57;;;;;;;34.47;20.17;;;-0.80;99.90;;;;;;5072999;28;20024;-73
2024/01/12 06:14:23;;;;;;;34.47;20.88;;;-0.80;99.90;;;;;;5073166;28;20472;-73
2024/01/12 06:16:48;;;;;;;37.17;22.25;;;-0.80;99.90;;;;;;5074538;28;20072;-74
2024/01/12 06:19:14;;;;;;;36.55;21.38;;;-0.80;99.90;;;;;;5073421;28;20024;-73
2024/01/12 06:21:41;;;;;;;37.65;21.23;;;-1.00;99.90;;;;;;5071931;28;20041;-74
2024/01/12 06:24:11;;;;;;;46.88;19.77;;;-1.00;99.90;;;;;;5071334;28;20097;-74
2024/01/12 06:26:37;;;;;;;38.05;20.02;;;-1.10;99.90;;;;;;5072109;28;20024;-76
2024/01/12 06:29:02;;;;;;;32.50;19.83;;;-1.20;99.90;;;;;;5071190;28;20028;-75
2024/01/12 06:31:31;;;;;;;33.47;19.20;;;-1.10;99.90;;;;;;5070815;28;20495;-78
2024/01/12 06:33:56;;;;;;;32.92;19.63;;;-1.10;99.90;;;;;;5071185;28;20538;-75
2024/01/12 06:36:22;;;;;;;36.95;19.10;;;-1.00;99.90;;;;;;5071522;28;20036;-75
2024/01/12 06:38:48;;;;;;;32.17;18.80;;;-1.00;99.90;;;;;;5070148;28;20498;-77
2024/01/12 06:41:13;;;;;;;32.88;19.52;;;-1.00;99.90;;;;;;5072637;28;20032;-77
2024/01/12 06:43:39;;;;;;;36.83;20.08;;;-1.00;99.90;;;;;;5072161;28;20047;-74
2024/01/12 06:46:07;;;;;;;39.55;20.30;;;-1.00;99.90;;;;;;5072381;28;20063;-75
2024/01/12 06:48:34;;;;;;;42.78;22.27;;;-1.00;99.90;;;;;;5070360;28;20024;-75
2024/01/12 06:51:00;;;;;;;37.58;21.38;;;-1.00;99.90;;;;;;5072601;28;20123;-74
2024/01/12 06:53:25;;;;;;;38.83;21.13;;;-0.90;99.90;;;;;;5072863;28;20082;-74
2024/01/12 06:55:51;;;;;;;37.80;21.90;;;-0.90;99.90;;;;;;5071905;28;20020;-74
2024/01/12 06:58:16;;;;;;;40.13;22.20;;;-0.90;99.90;;;;;;5071803;28;20047;-74
2024/01/12 07:00:42;;;;;;;52.28;23.73;;;-0.80;99.90;;;;;;5073146;28;20024;-75
2024/01/12 07:03:08;;;;;;;42.13;22.45;;;-0.80;99.90;;;;;;5075693;28;20101;-76
2024/01/12 07:05:33;;;;;;;46.80;23.85;;;-0.70;99.90;;;;;;5071911;28;20064;-75
2024/01/12 07:07:59;;;;;;;50.35;24.35;;;-0.70;99.90;;;;;;5072065;28;20032;-75
2024/01/12 07:10:25;;;;;;;45.33;23.55;;;-0.70;99.90;;;;;;5071808;28;20096;-75
2024/01/12 07:12:53;;;;;;;77.30;24.02;;;-0.60;99.90;;;;;;5070188;28;20475;-71
2024/01/12 07:15:20;;;;;;;40.53;22.73;;;-0.70;99.90;;;;;;5070846;28;20484;-72
2024/01/12 07:17:49;;;;;;;41.30;24.05;;;-0.70;99.90;;;;;;5071565;28;20048;-70
2024/01/12 07:20:15;;;;;;;44.38;23.85;;;-0.60;99.90;;;;;;5072023;28;20016;-74
2024/01/12 07:22:40;;;;;;;46.78;23.80;;;-0.60;99.90;;;;;;5072866;28;20051;-75
2024/01/12 07:25:06;;;;;;;51.00;23.13;;;-0.60;99.90;;;;;;5073538;28;20094;-74
2024/01/12 07:27:32;;;;;;;47.97;24.30;;;-0.60;99.90;;;;;;5074017;28;20024;-75
2024/01/12 07:29:57;;;;;;;47.97;23.05;;;-0.70;99.90;;;;;;5072542;28;20021;-72
2024/01/12 07:32:23;;;;;;;41.88;23.20;;;-0.70;99.90;;;;;;5072294;28;20024;-72
2024/01/12 07:34:49;;;;;;;53.58;23.50;;;-0.60;99.90;;;;;;5071013;28;20112;-70
2024/01/12 07:37:16;;;;;;;58.80;21.83;;;-0.60;99.90;;;;;;5071192;28;20154;-71
2024/01/12 07:39:42;;;;;;;46.40;22.30;;;-0.50;99.90;;;;;;5071628;28;20024;-70
2024/01/12 07:42:08;;;;;;;55.47;21.38;;;-0.50;99.90;;;;;;5070984;28;20025;-71
2024/01/12 07:44:36;;;;;;;57.05;21.50;;;-0.40;99.90;;;;;;5072206;28;20111;-71
2024/01/12 07:47:01;;;;;;;44.95;20.55;;;-0.40;99.90;;;;;;5075016;28;20036;-70
2024/01/12 07:49:27;;;;;;;50.35;21.23;;;-0.30;99.90;;;;;;5075131;28;20029;-71
2024/01/12 07:51:52;;;;;;;62.80;19.35;;;-0.30;99.90;;;;;;5074764;28;20028;-73
2024/01/12 07:54:18;;;;;;;48.78;20.38;;;-0.20;99.90;;;;;;5075822;28;20028;-71
2024/01/12 07:56:44;;;;;;;45.55;20.17;;;-0.10;99.90;;;;;;5077337;28;20400;-71
2024/01/12 07:59:11;;;;;;;47.33;21.00;;;0.10;99.90;;;;;;5076652;28;20035;-72
2024/01/12 08:01:40;;;;;;;61.72;20.38;;;0.30;99.90;;;;;;5077769;28;20040;-74
2024/01/12 08:04:06;;;;;;;42.30;19.73;;;0.40;99.90;;;;;;5075901;28;20187;-72
2024/01/12 08:06:31;;;;;;;51.30;18.98;;;0.40;99.90;;;;;;5074919;28;20070;-70
2024/01/12 08:08:57;;;;;;;46.03;18.75;;;0.50;99.90;;;;;;5074494;28;20029;-70
2024/01/12 08:11:23;;;;;;;38.92;18.20;;;0.40;99.90;;;;;;5074541;28;20089;-72
2024/01/12 08:13:48;;;;;;;54.97;18.60;;;0.40;99.90;;;;;;5074074;28;20494;-70
2024/01/12 08:16:14;;;;;;;41.28;17.75;;;0.40;99.90;;;;;;5076647;28;20013;-71
2024/01/12 08:18:39;;;;;;;44.80;17.95;;;0.40;99.90;;;;;;5076317;28;20036;-74
2024/01/12 08:21:05;;;;;;;43.20;16.85;;;0.40;99.90;;;;;;5077923;28;20029;-73
2024/01/12 08:23:30;;;;;;;42.72;17.90;;;0.50;99.90;;;;;;5076225;28;20083;-75
2024/01/12 08:25:56;;;;;;;52.72;18.50;;;0.50;99.90;;;;;;5074855;28;20033;-71
2024/01/12 08:28:22;;;;;;;54.83;19.45;;;0.50;99.90;;;;;;5074697;28;20032;-72
2024/01/12 08:30:48;;;;;;;50.70;19.40;;;0.60;99.90;;;;;;5074385;28;20090;-71
2024/01/12 08:33:13;;;;;;;49.22;19.00;;;0.50;99.90;;;;;;5073864;28;20479;-70
2024/01/12 08:35:39;;;;;;;46.78;18.55;;;0.50;99.90;;;;;;5074067;28;20472;-70
2024/01/12 08:38:05;;;;;;;47.10;18.02;;;0.40;99.90;;;;;;5074318;28;20028;-72
2024/01/12 08:40:30;;;;;;;51.90;19.35;;;0.50;99.90;;;;;;5073607;28;20029;-70
2024/01/12 08:42:57;;;;;;;53.92;21.15;;;0.50;99.90;;;;;;5074855;28;20100;-73
2024/01/12 08:45:22;;;;;;;52.42;19.42;;;0.60;99.90;;;;;;5074473;28;20020;-72
2024/01/12 08:47:48;;;;;;;52.20;19.77;;;0.60;99.90;;;;;;5074893;28;20032;-72
2024/01/12 08:50:14;;;;;;;53.35;21.65;;;0.60;99.90;;;;;;5075572;28;20047;-72
2024/01/12 08:52:39;;;;;;;62.85;22.23;;;0.70;99.90;;;;;;5081742;28;20060;-71
2024/01/12 08:55:08;;;;;;;60.40;22.95;;;0.80;99.90;;;;;;5072775;28;20017;-70
2024/01/12 08:57:35;;;;;;;54.63;20.65;;;0.80;99.90;;;;;;5091110;28;20035;-73
2024/01/12 09:00:03;;;;;;;55.25;21.50;;;0.90;99.90;;;;;;5094622;28;20024;-73
2024/01/12 09:02:29;;;;;;;63.58;22.05;;;0.90;99.90;;;;;;5094232;28;20025;-71
2024/01/12 09:04:54;;;;;;;58.58;22.13;;;1.00;99.90;;;;;;5093914;28;20085;-72
2024/01/12 09:07:20;;;;;;;60.47;21.55;;;1.10;99.90;;;;;;5094571;28;20024;-71
2024/01/12 09:09:46;;;;;;;64.68;22.65;;;1.10;99.90;;;;;;5095114;28;20020;-72
2024/01/12 09:12:11;;;;;;;66.20;22.95;;;1.20;99.90;;;;;;5094161;28;20501;-73
2024/01/12 09:14:37;;;;;;;64.85;21.33;;;1.30;99.90;;;;;;5094202;28;20036;-71
2024/01/12 09:17:03;;;;;;;67.97;21.80;;;1.30;99.90;;;;;;5094242;28;20028;-71
2024/01/12 09:19:28;;;;;;;61.35;21.65;;;1.40;99.90;;;;;;5094095;28;20028;-71
2024/01/12 09:21:54;;;;;;;52.90;19.67;;;1.30;99.90;;;;;;5093619;28;20424;-71
2024/01/12 09:24:19;;;;;;;57.90;20.15;;;1.40;99.90;;;;;;5092766;28;20028;-71
2024/01/12 09:26:45;;;;;;;56.00;18.25;;;1.40;99.90;;;;;;5093712;28;20028;-72
2024/01/12 09:29:10;;;;;;;73.47;20.80;;;1.50;99.90;;;;;;5092984;28;20039;-71
2024/01/12 09:31:36;;;;;;;56.92;19.35;;;1.50;99.90;;;;;;5093119;28;20488;-71
2024/01/12 09:34:02;;;;;;;60.70;19.77;;;1.60;99.90;;;;;;5093591;28;20201;-73
2024/01/12 09:36:27;;;;;;;70.55;19.38;;;1.70;99.90;;;;;;5093368;28;20020;-72
2024/01/12 09:38:54;;;;;;;59.60;19.25;;;1.70;99.90;;;;;;5093169;28;20100;-73
2024/01/12 09:41:31;;;;;;;53.92;20.13;;;1.70;99.90;;;;;;5093133;28;20024;-72
2024/01/12 09:43:59;;;;;;;67.40;21.73;;;1.80;99.90;;;;;;5092818;28;20089;-72
2024/01/12 09:46:30;;;;;;;57.92;21.75;;;1.80;99.90;;;;;;5093559;28;20085;-72
2024/01/12 09:48:55;;;;;;;68.18;21.23;;;1.80;99.90;;;;;;5093320;28;20024;-73
2024/01/12 09:51:21;;;;;;;66.25;21.52;;;1.90;99.90;;;;;;5093510;28;20444;-74
2024/01/12 09:53:48;;;;;;;59.25;21.55;;;1.80;99.90;;;;;;5093420;28;20028;-74
2024/01/12 09:56:14;;;;;;;60.10;22.27;;;1.90;99.90;;;;;;5092966;28;20039;-71
2024/01/12 09:58:40;;;;;;;60.05;21.33;;;1.90;99.90;;;;;;5095267;28;20054;-74
2024/01/12 10:01:08;;;;;;;67.55;23.63;;;1.90;99.90;;;;;;5097285;28;20028;-74
2024/01/12 10:03:35;;;;;;;70.18;21.65;;;1.90;99.90;;;;;;5092790;28;20028;-75
2024/01/12 10:06:01;;;;;;;70.40;22.20;;;1.90;99.90;;;;;;5093251;28;20463;-72
2024/01/12 10:08:40;;;;;;;70.97;24.20;;;1.90;99.90;;;;;;5092276;28;20035;-75
2024/01/12 10:11:05;;;;;;;63.88;22.58;;;2.00;99.90;;;;;;5093266;28;20084;-74
2024/01/12 10:13:31;;;;;;;59.78;21.15;;;2.00;99.90;;;;;;5093114;28;20531;-76
2024/01/12 10:15:57;;;;;;;70.80;24.85;;;2.10;99.90;;;;;;5095940;28;20076;-74
2024/01/12 10:18:22;;;;;;;70.28;23.55;;;2.00;99.90;;;;;;5093631;28;20397;-72
2024/01/12 10:20:48;;;;;;;73.32;25.48;;;2.00;99.90;;;;;;5092967;28;20373;-73
2024/01/12 10:23:20;;;;;;;66.35;21.42;;;2.10;99.90;;;;;;5096330;28;20031;-75
2024/01/12 10:25:59;;;;;;;59.75;22.25;;;2.10;99.90;;;;;;5103297;28;20471;-75
2024/01/12 10:28:30;;;;;;;58.17;20.13;;;2.10;99.90;;;;;;5115891;28;20036;-71
2024/01/12 10:30:56;;;;;;;75.25;24.17;;;2.10;99.90;;;;;;5109380;28;20026;-72
2024/01/12 10:33:22;;;;;;;60.67;21.02;;;2.20;99.90;;;;;;5114818;28;20483;-71
2024/01/12 10:35:59;;;;;;;54.70;21.08;;;2.20;99.90;;;;;;5113850;28;20024;-72
2024/01/12 10:38:27;;;;;;;57.08;21.60;;;2.20;99.90;;;;;;5104161;28;20017;-71
2024/01/12 10:40:55;;;;;;;60.13;20.00;;;2.30;99.90;;;;;;5110033;28;20028;-74
2024/01/12 10:43:24;;;;;;;51.30;18.15;;;2.30;99.90;;;;;;5107405;28;20016;-71
2024/01/12 10:45:56;;;;;;;55.38;19.35;;;2.40;99.90;;;;;;5107438;28;20049;-70
2024/01/12 10:48:24;;;;;;;52.65;19.15;;;2.30;99.90;;;;;;5092232;28;20047;-72
2024/01/12 10:50:57;;;;;;;53.75;18.83;;;2.20;99.90;;;;;;5092134;28;20471;-72
2024/01/12 10:53:39;;;;;;;53.08;19.35;;;2.30;99.90;;;;;;5082659;28;20024;-76
2024/01/12 10:56:06;;;;;;;52.45;18.77;;;2.30;99.90;;;;;;5071907;28;20033;-72
2024/01/12 10:58:32;;;;;;;48.88;19.90;;;2.30;99.90;;;;;;5071463;28;20044;-72
2024/01/12 11:00:57;;;;;;;48.40;18.67;;;2.30;99.90;;;;;;5071381;28;20552;-75
2024/01/12 11:03:23;;;;;;;52.33;19.23;;;2.40;99.90;;;;;;5070857;28;20032;-73
2024/01/12 11:05:50;;;;;;;50.42;18.60;;;2.40;99.90;;;;;;5070819;28;20066;-74
2024/01/12 11:08:19;;;;;;;56.50;20.23;;;2.40;99.90;;;;;;5071377;28;20075;-73
2024/01/12 11:10:52;;;;;;;47.03;17.88;;;2.40;99.90;;;;;;5070311;28;20124;-71
2024/01/12 11:13:18;;;;;;;48.72;18.58;;;2.50;99.90;;;;;;5069635;28;20021;-72
2024/01/12 11:15:45;;;;;;;46.95;18.10;;;2.50;99.90;;;;;;5069634;28;20021;-72
2024/01/12 11:18:10;;;;;;;44.58;17.42;;;2.50;99.90;;;;;;5070774;28;20324;-71
2024/01/12 11:20:36;;;;;;;46.58;18.02;;;2.60;99.90;;;;;;5072897;28;20363;-71
2024/01/12 11:23:02;;;;;;;51.63;17.52;;;2.50;99.90;;;;;;5074012;28;20104;-73
2024/01/12 11:25:28;;;;;;;55.00;19.17;;;2.60;99.90;;;;;;5072169;28;20036;-71
2024/01/12 11:27:56;;;;;;;48.25;19.92;;;2.60;99.90;;;;;;5073394;28;20037;-71
2024/01/12 11:30:24;;;;;;;56.50;19.13;;;2.70;99.90;;;;;;5074783;28;20017;-72
2024/01/12 11:33:00;;;;;;;54.38;18.67;;;2.70;99.90;;;;;;5074013;28;20032;-74
2024/01/12 11:35:29;;;;;;;49.30;18.48;;;2.80;99.90;;;;;;5073093;28;20507;-71
2024/01/12 11:38:09;;;;;;;57.25;18.77;;;2.70;99.90;;;;;;5074040;28;20099;-71
2024/01/12 11:40:36;;;;;;;47.03;17.40;;;2.70;99.90;;;;;;5074063;28;20024;-70
2024/01/12 11:43:02;;;;;;;54.50;19.27;;;2.80;99.90;;;;;;5074296;28;20337;-70
2024/01/12 11:45:29;;;;;;;47.17;17.42;;;2.90;99.90;;;;;;5072811;28;20479;-71
2024/01/12 11:47:54;;;;;;;53.55;18.80;;;2.80;99.90;;;;;;5073568;28;20503;-71
2024/01/12 11:50:24;;;;;;;46.45;18.83;;;2.90;99.90;;;;;;5074827;28;20059;-71
2024/01/12 11:53:00;;;;;;;46.05;18.88;;;2.90;99.90;;;;;;5073425;28;20043;-72
2024/01/12 11:55:27;;;;;;;57.28;18.58;;;2.90;99.90;;;;;;5073633;28;20021;-71
2024/01/12 11:57:56;;;;;;;52.55;17.58;;;2.90;99.90;;;;;;5074189;28;20034;-70
2024/01/12 12:00:25;;;;;;;52.30;19.40;;;2.90;99.90;;;;;;5075408;28;20113;-73
2024/01/12 12:02:51;;;;;;;50.40;18.00;;;3.00;99.90;;;;;;5075811;28;20021;-72
2024/01/12 12:05:16;;;;;;;59.60;19.95;;;3.00;99.90;;;;;;5072969;28;20029;-70
2024/01/12 12:07:42;;;;;;;45.05;18.55;;;3.00;99.90;;;;;;5073769;28;20306;-72
2024/01/12 12:10:09;;;;;;;50.30;18.90;;;3.10;99.90;;;;;;5074152;28;20096;-72
2024/01/12 12:12:35;;;;;;;47.67;17.83;;;3.10;99.90;;;;;;5074970;28;20025;-73
2024/01/12 12:15:09;;;;;;;53.60;18.75;;;3.10;99.90;;;;;;5073637;28;20382;-72
2024/01/12 12:17:41;;;;;;;53.15;18.70;;;3.20;99.90;;;;;;5073706;28;20497;-72
2024/01/12 12:20:11;;;;;;;57.00;18.23;;;3.20;99.90;;;;;;5077459;28;20021;-73
2024/01/12 12:22:46;;;;;;;52.80;17.23;;;3.20;99.90;;;;;;5076539;28;20088;-73
2024/01/12 12:25:16;;;;;;;63.70;20.63;;;3.30;99.90;;;;;;5074795;28;20032;-73
2024/01/12 12:27:43;;;;;;;49.03;17.27;;;3.30;99.90;;;;;;5073653;28;20496;-70